Rouleau, Canada
Current Conditions -  °F | °C
As of 4:00 PM on Saturday 20 Dec 2014 (Local Time) from CYQR Reporting Station
Haze Haze  
Wind Chill: 23°   Ceiling: 500
Heat Index: 28°   Visibility: 6mi
Dew Point: 28°   Wind: 5mph
Humidity: 100%   Direction: 150°SSE
Pressure: 29.7"   Gusts: NA
Location:  50.18°N, 104.9°W
Report Text: CYQR 202200Z 15004KT 6SM BR OVC005 M02/M02 A2970 RMK ST8 SLP091
Loading
Personal Weather Stations






























Interactive Weather Map New forecast layout! Learn more

10-Day Weather Forecast

Advertisements
Track Severe Weather on mobile